메인 페이지
METAR-TAF:

METAR-TAF

공항 :

두바이 국제공항

두바이, 아랍에미리트

위도: 25-15-10N, 경도: 055-21-52E, 고도: 8m

현재 날씨관측

예보는 45분 전, 17:00시(UTC)에 발표되었습니다.
4kt남동풍과 남서풍을 오가는
온도 36°C
습도 42%
기압 1003 hPa
시정 10km 이상
1500m 미만 상공 구름 및 적란운 없음

METAR: OMDB 311700Z 17004KT 140V220 CAVOK 36/21 Q1003 NOSIG

시각: 21:45 (17:45 UTC)

예보

예보는 46분 전, 16:59시(UTC)에 발표되었습니다.
예보 대상 시간: 31일 18시부터 02일 00시까지 (UTC)
남동5kt
시정: 8000m
확률 30%
01일 02시부터 01일 09시까지 (UTC)
시정: 3000m
황사
전환 중
01일 03시부터 01일 05시까지 (UTC)
15kt
전환 중
01일 07시부터 01일 09시까지 (UTC)
13kt
전환 중
01일 15시부터 01일 17시까지 (UTC)
5kt

TAF: OMDB 311659Z 3118/0200 14005KT 8000 NSC PROB30 0102/0109 3000 DU BECMG 0103/0105 19015KT BECMG 0107/0109 28013KT BECMG 0115/0117 09005KT

4,000개 이상의 공항 관측 자료 및 예보 (METAR 및 TAF 보고).

지도상에서 검색 가능한 기상관측소가 노란 점과 빨간 점으로 표시되어 있습니다.

기상관측소 명을 보려면 표시 위로 마우스를 이동하세요.

날씨 관측과 예보를 보려면 클릭하세요.

지도 변경 : 확대하려면 엑스 표시가 있는 녹색 버튼, 축소하려면 빼기 표시가 있는 녹색 버튼, 다음 페이지의 지도를 보려면 녹색 화살표를 클릭하세요.


METAR-TAF: